x

Sentry Shoal (46131) Wave Buoy

1:00 - Wed 31st Aug 2016 All times are PDT. -7 hours from GMT.

  • Sig Wave height 3.6ft
  • Peak Period 4s
  • Wind
    22mph, 27mph gusts
  • Sea Temp 60°f
  • Aire Temp 61°f
  • Sea Pressure 1012.1mb
  • Sentry Shoal
  • Sentry Shoal

More Historic Weather Station data

Upgrade to MSW Pro to gain access to the past 30 days of data for over 8000 Wavebouys and Weather Stations around the globe.

Join Pro

Comparision Forecast

View Surf forecast
   
mié 08/31 1:00 3.5ft 4s 22 27 mph 1012.1mb 60f 61f
12:00 3.5ft 5s 22 27 mph 1012.5mb 60f 61f
11:00 3.5ft 4s 20 25 mph 1012.5mb 60f 61f
10:00 3.5ft 4s 22 27 mph 1012.2mb 60f 61f
9:00 2.5ft 3s 22 25 mph 1012.1mb 60f 61f
8:00 1.6ft 3s 18 22 mph 1012mb 60f 60f
7:00 1.3ft 3s 9 11 mph 1012.4mb 60f 59f
6:00 1.3ft 3s 13 16 mph 1012.3mb 60f 59f
5:00 1ft 3s 13 18 mph 1012.5mb 60f 59f
4:00 1ft 3s 9 11 mph 1012.8mb 60f 59f
3:00 1ft 3s 11 16 mph 1013mb 60f 59f
2:00 1.3ft 3s 7 9 mph 1013.3mb 60f 60f
1:00 1ft 3s 11 13 mph 1013.7mb 60f 60f
12:00 1ft 3s 4 7 mph 1013.8mb 59f 59f
mar 08/30 11:00 1.3ft 3s 9 11 mph 1014mb 59f 59f
10:00 1ft 3s 9 11 mph 1013.8mb 59f 60f
9:00 1ft 3s 11 13 mph 1013.6mb 59f 60f
8:00 1ft 3s 4 9 mph 1012.9mb 59f 61f
7:00 1ft 3s 9 11 mph 1012.7mb 58f 61f
6:00 1ft 4s 9
mph
1012.8mb 58f 61f
5:00 1.3ft 4s 11 13 mph 1012.9mb 58f 62f
4:00 1.3ft 4s 9 11 mph 1013.3mb 58f 61f
3:00 1.3ft 4s 9
mph
1013.6mb 58f 60f
2:00 1.6ft 4s 9 11 mph 1014.4mb 58f 61f
1:00 1.6ft 4s 7 9 mph 1014.7mb 58f 60f
12:00 1.3ft 4s 7 9 mph 1015.1mb 58f 60f
11:00 1.6ft 4s 9 11 mph 1015.3mb 58f 59f
10:00 1.6ft 4s 9 13 mph 1015.1mb 58f 59f
9:00 2ft 4s 9 13 mph 1015.1mb 58f 60f
8:00 2ft 3s 16 20 mph 1014.3mb 58f 61f
7:00 2ft 3s 13 18 mph 1014.4mb 58f 60f
6:00 2ft 3s 13
mph
1014.2mb 58f 60f
5:00 1.3ft 3s 9 13 mph 1014mb 58f 61f
4:00 1.3ft 3s 9 11 mph 1014mb 58f 61f
3:00 1ft 2s 7 9 mph 1014mb 58f 60f
2:00 0.7ft 3s 9
mph
1014.2mb 58f 60f
1:00 0.7ft 2s 7 9 mph 1014.2mb 58f 63f
12:00  -   -  9
mph
- - -
lun 08/29 11:00 0.7ft 2s 7 9 mph 1014mb 58f 61f
10:00 0.3ft 3s 7 9 mph 1013.9mb 58f 61f
9:00 0.7ft 3s 4 7 mph 1013.9mb 59f 62f
8:00 0.7ft 3s 4
mph
1013.8mb 59f 61f
7:00 1ft 3s 4 9 mph 1014.1mb 59f 60f
6:00 1ft 3s 7
mph
1014.2mb 59f 61f
5:00 1.3ft 4s 9
mph
1014.3mb 59f 61f
4:00 1.3ft 4s 4
mph
1014.9mb 59f 61f
3:00 1.3ft 4s 2
mph
1015.2mb 59f 60f
2:00 1ft 3s 4
mph
1015.8mb 59f 60f
1:00 0.7ft 3s 7 9 mph 1015.8mb 59f 60f
12:00 0.7ft 2s 7
mph
1016.3mb 58f 60f
11:00 0.7ft 2s 9
mph
1016.7mb 58f 60f
10:00 0.7ft 2s 11 13 mph 1016.8mb 58f 60f
9:00 1ft 3s 9 11 mph 1017mb 58f 59f
8:00 0.7ft 3s 7
mph
1017.1mb 58f 59f
7:00 0.7ft 3s 9 11 mph 1016.8mb 58f 59f
6:00 0.7ft 2s 2
mph
1016.9mb 58f 58f
5:00 0.7ft 3s 11 13 mph 1016.7mb 58f 59f
4:00 0.7ft 4s 4
mph
1017.1mb 58f 58f
3:00 1ft 4s 2 4 mph 1017.1mb 58f 58f
2:00 1ft 3s 2
mph
1017mb 58f 59f
1:00 1.3ft 4s 7 9 mph 1017mb 57f 59f
12:00 1.6ft 3s 7 9 mph 1017.4mb 57f 59f
dom 08/28 11:00 2ft 4s 9 11 mph 1017.5mb 58f 59f
10:00 2ft 4s 11 13 mph 1017.4mb 58f 60f
9:00 2ft 4s 13 18 mph 1017.4mb 58f 60f
8:00 2.5ft 4s 13 18 mph 1017.2mb 58f 60f
7:00 2.5ft 4s 7 13 mph 1017.5mb 58f 59f
6:00 2.5ft 4s 13 18 mph 1017.3mb 58f 58f
5:00 2.5ft 4s 16 18 mph 1017.4mb 58f 58f
4:00 3ft 4s 13 16 mph 1017.7mb 57f 58f
3:00 3ft 4s 18 20 mph 1017.6mb 57f 59f
2:00 3.5ft 5s 18 22 mph 1017.7mb 57f 59f
1:00 3ft 4s 20 25 mph 1017.6mb 57f 59f
12:00 2.5ft 4s 18 22 mph 1017.5mb 57f 59f
11:00 3ft 4s 18 22 mph 1017.4mb 57f 59f
10:00 3ft 4s 20 25 mph 1017.2mb 57f 59f
9:00 3ft 4s 22 25 mph 1016.8mb 57f 59f
8:00 2.5ft 3s 20 22 mph 1016.3mb 57f 59f
7:00 1.6ft 3s 13 18 mph 1016.3mb 58f 60f
6:00 1.3ft 3s 16 20 mph 1015.3mb 58f 60f
5:00 0.3ft 2s 4
mph
1015mb 58f 58f
4:00 0.3ft 3s 4 7 mph 1014.5mb 58f 58f
3:00 0.3ft 3s 2 4 mph 1014.3mb 57f 60f
2:00 0.3ft 3s 4 7 mph 1014.1mb 57f 60f
1:00 0.3ft 3s 4 7 mph 1013.6mb 57f 60f
12:00 0.3ft 2s 7
mph
1013.1mb 58f 60f
sáb 08/27 11:00 0.3ft 3s 4 7 mph 1012.9mb 58f 62f
10:00 0.7ft 3s 4 7 mph 1012.3mb 58f 63f